sensor_id;sensor_type;location;lat;lon;timestamp;P1;durP1;ratioP1;P2;durP2;ratioP2
23015;SDS011;11674;52.428;13.584;2023-01-23T00:00:30;25.52;;;13.63;;
23015;SDS011;11674;52.428;13.584;2023-01-23T00:05:38;24.60;;;12.50;;
23015;SDS011;11674;52.428;13.584;2023-01-23T00:10:45;24.50;;;11.95;;
23015;SDS011;11674;52.428;13.584;2023-01-23T00:15:52;26.60;;;12.88;;
23015;SDS011;11674;52.428;13.584;2023-01-23T00:21:03;27.40;;;13.68;;
23015;SDS011;11674;52.428;13.584;2023-01-23T00:26:12;25.05;;;13.13;;
23015;SDS011;11674;52.428;13.584;2023-01-23T00:31:21;27.17;;;13.68;;
23015;SDS011;11674;52.428;13.584;2023-01-23T00:36:32;30.13;;;13.43;;
23015;SDS011;11674;52.428;13.584;2023-01-23T00:41:41;25.55;;;13.02;;
23015;SDS011;11674;52.428;13.584;2023-01-23T00:46:48;26.67;;;14.00;;
23015;SDS011;11674;52.428;13.584;2023-01-23T00:51:57;29.58;;;14.38;;
23015;SDS011;11674;52.428;13.584;2023-01-23T00:57:04;26.42;;;12.95;;
23015;SDS011;11674;52.428;13.584;2023-01-23T01:02:11;26.58;;;14.45;;
23015;SDS011;11674;52.428;13.584;2023-01-23T01:07:18;29.45;;;13.73;;
23015;SDS011;11674;52.428;13.584;2023-01-23T01:12:25;29.52;;;15.23;;
23015;SDS011;11674;52.428;13.584;2023-01-23T01:17:33;31.85;;;15.18;;
23015;SDS011;11674;52.428;13.584;2023-01-23T01:22:41;28.73;;;14.90;;
23015;SDS011;11674;52.428;13.584;2023-01-23T01:27:48;33.00;;;15.82;;
23015;SDS011;11674;52.428;13.584;2023-01-23T01:32:55;31.52;;;15.27;;
23015;SDS011;11674;52.428;13.584;2023-01-23T01:38:03;31.58;;;14.75;;
23015;SDS011;11674;52.428;13.584;2023-01-23T01:43:17;33.17;;;14.93;;
23015;SDS011;11674;52.428;13.584;2023-01-23T01:48:28;33.15;;;15.27;;
23015;SDS011;11674;52.428;13.584;2023-01-23T01:59:10;38.22;;;15.90;;
23015;SDS011;11674;52.428;13.584;2023-01-23T02:04:18;35.50;;;15.85;;
23015;SDS011;11674;52.428;13.584;2023-01-23T02:09:25;32.83;;;16.02;;
23015;SDS011;11674;52.428;13.584;2023-01-23T02:14:32;38.42;;;16.77;;
23015;SDS011;11674;52.428;13.584;2023-01-23T02:19:42;36.45;;;16.48;;
23015;SDS011;11674;52.428;13.584;2023-01-23T02:25:07;36.50;;;16.80;;
23015;SDS011;11674;52.428;13.584;2023-01-23T02:30:23;36.05;;;15.80;;
23015;SDS011;11674;52.428;13.584;2023-01-23T02:35:30;34.15;;;16.90;;
23015;SDS011;11674;52.428;13.584;2023-01-23T02:40:42;39.75;;;17.58;;
23015;SDS011;11674;52.428;13.584;2023-01-23T02:45:53;27.57;;;12.80;;
23015;SDS011;11674;52.428;13.584;2023-01-23T02:51:00;36.65;;;16.23;;
23015;SDS011;11674;52.428;13.584;2023-01-23T02:56:07;38.22;;;15.73;;
23015;SDS011;11674;52.428;13.584;2023-01-23T03:01:14;39.60;;;16.33;;
23015;SDS011;11674;52.428;13.584;2023-01-23T03:06:21;38.10;;;16.42;;
23015;SDS011;11674;52.428;13.584;2023-01-23T03:11:29;35.55;;;16.25;;
23015;SDS011;11674;52.428;13.584;2023-01-23T03:16:37;34.35;;;16.27;;
23015;SDS011;11674;52.428;13.584;2023-01-23T03:21:45;36.03;;;16.75;;
23015;SDS011;11674;52.428;13.584;2023-01-23T03:26:52;35.30;;;16.67;;
23015;SDS011;11674;52.428;13.584;2023-01-23T03:32:00;37.22;;;16.85;;
23015;SDS011;11674;52.428;13.584;2023-01-23T03:37:08;34.95;;;16.48;;
23015;SDS011;11674;52.428;13.584;2023-01-23T03:42:19;38.97;;;17.15;;
23015;SDS011;11674;52.428;13.584;2023-01-23T03:47:29;33.92;;;16.23;;
23015;SDS011;11674;52.428;13.584;2023-01-23T03:52:36;34.00;;;15.82;;
23015;SDS011;11674;52.428;13.584;2023-01-23T03:57:43;31.63;;;15.82;;
23015;SDS011;11674;52.428;13.584;2023-01-23T04:02:50;35.10;;;15.65;;
23015;SDS011;11674;52.428;13.584;2023-01-23T04:07:57;37.08;;;15.98;;
23015;SDS011;11674;52.428;13.584;2023-01-23T04:13:04;32.47;;;15.10;;
23015;SDS011;11674;52.428;13.584;2023-01-23T04:18:12;31.67;;;15.50;;
23015;SDS011;11674;52.428;13.584;2023-01-23T04:23:19;27.75;;;14.70;;
23015;SDS011;11674;52.428;13.584;2023-01-23T04:28:33;30.73;;;15.18;;
23015;SDS011;11674;52.428;13.584;2023-01-23T04:33:40;32.70;;;15.68;;
23015;SDS011;11674;52.428;13.584;2023-01-23T04:38:47;34.42;;;15.75;;
23015;SDS011;11674;52.428;13.584;2023-01-23T04:43:59;29.02;;;14.60;;
23015;SDS011;11674;52.428;13.584;2023-01-23T04:49:06;29.75;;;14.88;;
23015;SDS011;11674;52.428;13.584;2023-01-23T04:54:13;35.13;;;15.85;;
23015;SDS011;11674;52.428;13.584;2023-01-23T04:59:20;33.60;;;16.60;;
23015;SDS011;11674;52.428;13.584;2023-01-23T05:04:27;33.53;;;16.42;;
23015;SDS011;11674;52.428;13.584;2023-01-23T05:09:34;34.92;;;16.20;;
23015;SDS011;11674;52.428;13.584;2023-01-23T05:14:45;34.70;;;16.45;;
23015;SDS011;11674;52.428;13.584;2023-01-23T05:19:52;30.73;;;15.77;;
23015;SDS011;11674;52.428;13.584;2023-01-23T05:24:59;29.55;;;15.77;;
23015;SDS011;11674;52.428;13.584;2023-01-23T05:30:07;29.52;;;16.08;;
23015;SDS011;11674;52.428;13.584;2023-01-23T05:35:14;33.65;;;15.77;;
23015;SDS011;11674;52.428;13.584;2023-01-23T05:40:21;32.70;;;16.42;;
23015;SDS011;11674;52.428;13.584;2023-01-23T05:45:47;35.40;;;16.15;;
23015;SDS011;11674;52.428;13.584;2023-01-23T05:51:04;36.40;;;17.30;;
23015;SDS011;11674;52.428;13.584;2023-01-23T05:56:11;35.42;;;16.60;;
23015;SDS011;11674;52.428;13.584;2023-01-23T06:01:47;29.23;;;15.23;;
23015;SDS011;11674;52.428;13.584;2023-01-23T06:07:13;32.78;;;15.68;;
23015;SDS011;11674;52.428;13.584;2023-01-23T06:12:25;36.83;;;16.48;;
23015;SDS011;11674;52.428;13.584;2023-01-23T06:17:32;31.27;;;15.15;;
23015;SDS011;11674;52.428;13.584;2023-01-23T06:22:39;34.33;;;16.42;;
23015;SDS011;11674;52.428;13.584;2023-01-23T06:27:47;35.78;;;16.20;;
23015;SDS011;11674;52.428;13.584;2023-01-23T06:32:56;27.38;;;14.73;;
23015;SDS011;11674;52.428;13.584;2023-01-23T06:38:08;32.55;;;15.85;;
23015;SDS011;11674;52.428;13.584;2023-01-23T06:43:15;32.45;;;15.40;;
23015;SDS011;11674;52.428;13.584;2023-01-23T06:48:23;33.35;;;15.23;;
23015;SDS011;11674;52.428;13.584;2023-01-23T06:53:30;26.95;;;14.30;;
23015;SDS011;11674;52.428;13.584;2023-01-23T06:58:42;28.02;;;15.30;;
23015;SDS011;11674;52.428;13.584;2023-01-23T07:03:59;28.63;;;14.05;;
23015;SDS011;11674;52.428;13.584;2023-01-23T07:09:06;27.10;;;14.38;;
23015;SDS011;11674;52.428;13.584;2023-01-23T07:14:14;31.40;;;15.77;;
23015;SDS011;11674;52.428;13.584;2023-01-23T07:19:25;26.90;;;11.65;;
23015;SDS011;11674;52.428;13.584;2023-01-23T07:24:33;31.50;;;16.10;;
23015;SDS011;11674;52.428;13.584;2023-01-23T07:29:40;29.83;;;15.65;;
23015;SDS011;11674;52.428;13.584;2023-01-23T07:34:48;33.17;;;16.42;;
23015;SDS011;11674;52.428;13.584;2023-01-23T07:39:55;36.20;;;17.05;;
23015;SDS011;11674;52.428;13.584;2023-01-23T07:45:02;33.47;;;16.98;;
23015;SDS011;11674;52.428;13.584;2023-01-23T07:50:09;36.28;;;16.58;;
23015;SDS011;11674;52.428;13.584;2023-01-23T07:55:17;35.33;;;16.55;;
23015;SDS011;11674;52.428;13.584;2023-01-23T08:00:24;37.30;;;17.25;;
23015;SDS011;11674;52.428;13.584;2023-01-23T08:05:31;32.72;;;16.73;;
23015;SDS011;11674;52.428;13.584;2023-01-23T08:10:38;36.65;;;17.42;;
23015;SDS011;11674;52.428;13.584;2023-01-23T08:15:45;34.10;;;17.30;;
23015;SDS011;11674;52.428;13.584;2023-01-23T08:20:53;32.38;;;17.20;;
23015;SDS011;11674;52.428;13.584;2023-01-23T08:26:02;33.53;;;16.65;;
23015;SDS011;11674;52.428;13.584;2023-01-23T08:31:11;37.33;;;17.05;;
23015;SDS011;11674;52.428;13.584;2023-01-23T08:36:19;30.63;;;16.58;;
23015;SDS011;11674;52.428;13.584;2023-01-23T08:41:26;34.20;;;16.70;;
23015;SDS011;11674;52.428;13.584;2023-01-23T08:46:33;35.10;;;16.23;;
23015;SDS011;11674;52.428;13.584;2023-01-23T08:51:40;34.88;;;17.02;;
23015;SDS011;11674;52.428;13.584;2023-01-23T08:56:47;37.55;;;16.65;;
23015;SDS011;11674;52.428;13.584;2023-01-23T09:01:54;30.00;;;15.45;;
23015;SDS011;11674;52.428;13.584;2023-01-23T09:07:01;31.55;;;16.48;;
23015;SDS011;11674;52.428;13.584;2023-01-23T09:12:08;30.88;;;16.52;;
23015;SDS011;11674;52.428;13.584;2023-01-23T09:17:18;36.15;;;17.55;;
23015;SDS011;11674;52.428;13.584;2023-01-23T09:22:25;29.42;;;16.17;;
23015;SDS011;11674;52.428;13.584;2023-01-23T09:27:33;37.58;;;18.17;;
23015;SDS011;11674;52.428;13.584;2023-01-23T09:32:40;30.60;;;16.90;;
23015;SDS011;11674;52.428;13.584;2023-01-23T09:37:47;31.00;;;16.42;;
23015;SDS011;11674;52.428;13.584;2023-01-23T09:42:56;32.78;;;17.38;;
23015;SDS011;11674;52.428;13.584;2023-01-23T09:48:15;29.67;;;15.77;;
23015;SDS011;11674;52.428;13.584;2023-01-23T09:53:34;33.00;;;16.55;;
23015;SDS011;11674;52.428;13.584;2023-01-23T10:04:10;36.55;;;17.60;;
23015;SDS011;11674;52.428;13.584;2023-01-23T10:09:33;34.63;;;17.50;;
23015;SDS011;11674;52.428;13.584;2023-01-23T10:20:12;34.08;;;16.17;;
23015;SDS011;11674;52.428;13.584;2023-01-23T10:25:25;31.75;;;16.60;;
23015;SDS011;11674;52.428;13.584;2023-01-23T10:30:36;30.98;;;16.05;;
23015;SDS011;11674;52.428;13.584;2023-01-23T10:35:49;34.72;;;15.85;;
23015;SDS011;11674;52.428;13.584;2023-01-23T10:41:00;31.45;;;16.08;;
23015;SDS011;11674;52.428;13.584;2023-01-23T10:46:14;27.00;;;15.45;;
23015;SDS011;11674;52.428;13.584;2023-01-23T10:51:33;36.25;;;15.75;;
23015;SDS011;11674;52.428;13.584;2023-01-23T11:01:57;27.40;;;15.95;;
23015;SDS011;11674;52.428;13.584;2023-01-23T11:07:26;30.05;;;15.90;;
23015;SDS011;11674;52.428;13.584;2023-01-23T11:12:46;27.33;;;16.10;;
23015;SDS011;11674;52.428;13.584;2023-01-23T11:17:55;26.95;;;15.68;;
23015;SDS011;11674;52.428;13.584;2023-01-23T11:23:04;27.42;;;15.38;;
23015;SDS011;11674;52.428;13.584;2023-01-23T11:33:44;29.63;;;16.25;;
23015;SDS011;11674;52.428;13.584;2023-01-23T11:38:52;25.40;;;15.13;;
23015;SDS011;11674;52.428;13.584;2023-01-23T11:44:27;31.25;;;14.45;;
23015;SDS011;11674;52.428;13.584;2023-01-23T11:49:59;29.67;;;15.40;;
23015;SDS011;11674;52.428;13.584;2023-01-23T12:06:22;29.45;;;14.52;;
23015;SDS011;11674;52.428;13.584;2023-01-23T12:44:26;20.15;;;11.00;;
23015;SDS011;11674;52.428;13.584;2023-01-23T12:49:58;18.77;;;11.20;;
23015;SDS011;11674;52.428;13.584;2023-01-23T13:11:23;16.88;;;9.55;;
23015;SDS011;11674;52.428;13.584;2023-01-23T13:16:38;17.58;;;10.13;;
23015;SDS011;11674;52.428;13.584;2023-01-23T13:22:11;18.88;;;10.07;;
23015;SDS011;11674;52.428;13.584;2023-01-23T13:32:41;17.98;;;10.18;;
23015;SDS011;11674;52.428;13.584;2023-01-23T13:37:48;21.00;;;9.95;;
23015;SDS011;11674;52.428;13.584;2023-01-23T13:42:55;21.77;;;9.68;;
23015;SDS011;11674;52.428;13.584;2023-01-23T13:48:16;23.05;;;10.05;;
23015;SDS011;11674;52.428;13.584;2023-01-23T13:53:42;17.70;;;10.02;;
23015;SDS011;11674;52.428;13.584;2023-01-23T13:58:54;19.13;;;9.52;;
23015;SDS011;11674;52.428;13.584;2023-01-23T14:04:05;16.13;;;9.27;;
23015;SDS011;11674;52.428;13.584;2023-01-23T14:09:28;18.77;;;9.52;;
23015;SDS011;11674;52.428;13.584;2023-01-23T14:14:37;15.70;;;9.02;;
23015;SDS011;11674;52.428;13.584;2023-01-23T14:19:52;17.75;;;8.05;;
23015;SDS011;11674;52.428;13.584;2023-01-23T14:25:12;21.65;;;9.95;;
23015;SDS011;11674;52.428;13.584;2023-01-23T14:30:23;15.05;;;8.52;;
23015;SDS011;11674;52.428;13.584;2023-01-23T14:35:31;14.48;;;8.57;;
23015;SDS011;11674;52.428;13.584;2023-01-23T14:40:39;17.73;;;8.80;;
23015;SDS011;11674;52.428;13.584;2023-01-23T14:45:50;14.15;;;7.90;;
23015;SDS011;11674;52.428;13.584;2023-01-23T14:51:08;14.95;;;8.23;;
23015;SDS011;11674;52.428;13.584;2023-01-23T14:56:23;15.20;;;8.45;;
23015;SDS011;11674;52.428;13.584;2023-01-23T15:01:32;15.02;;;8.27;;
23015;SDS011;11674;52.428;13.584;2023-01-23T15:06:39;16.50;;;8.00;;
23015;SDS011;11674;52.428;13.584;2023-01-23T15:11:46;14.10;;;8.10;;
23015;SDS011;11674;52.428;13.584;2023-01-23T15:17:04;16.30;;;8.00;;
23015;SDS011;11674;52.428;13.584;2023-01-23T15:22:45;16.08;;;8.45;;
23015;SDS011;11674;52.428;13.584;2023-01-23T15:27:45;14.90;;;8.45;;
23015;SDS011;11674;52.428;13.584;2023-01-23T15:32:52;14.80;;;7.57;;
23015;SDS011;11674;52.428;13.584;2023-01-23T15:37:59;16.83;;;8.35;;
23015;SDS011;11674;52.428;13.584;2023-01-23T15:43:14;13.30;;;8.07;;
23015;SDS011;11674;52.428;13.584;2023-01-23T15:48:24;14.57;;;8.80;;
23015;SDS011;11674;52.428;13.584;2023-01-23T15:53:31;16.83;;;7.75;;
23015;SDS011;11674;52.428;13.584;2023-01-23T15:58:38;12.52;;;7.88;;
23015;SDS011;11674;52.428;13.584;2023-01-23T16:03:45;12.55;;;7.75;;
23015;SDS011;11674;52.428;13.584;2023-01-23T16:08:52;16.80;;;8.95;;
23015;SDS011;11674;52.428;13.584;2023-01-23T16:13:59;13.02;;;8.32;;
23015;SDS011;11674;52.428;13.584;2023-01-23T16:19:07;14.65;;;7.97;;
23015;SDS011;11674;52.428;13.584;2023-01-23T16:24:18;16.33;;;8.95;;
23015;SDS011;11674;52.428;13.584;2023-01-23T16:29:27;13.25;;;8.10;;
23015;SDS011;11674;52.428;13.584;2023-01-23T16:34:35;16.52;;;9.68;;
23015;SDS011;11674;52.428;13.584;2023-01-23T16:39:43;15.70;;;8.77;;
23015;SDS011;11674;52.428;13.584;2023-01-23T16:44:50;17.58;;;9.20;;
23015;SDS011;11674;52.428;13.584;2023-01-23T16:49:57;16.50;;;9.20;;
23015;SDS011;11674;52.428;13.584;2023-01-23T16:55:05;14.63;;;9.07;;
23015;SDS011;11674;52.428;13.584;2023-01-23T17:00:24;16.17;;;9.48;;
23015;SDS011;11674;52.428;13.584;2023-01-23T17:05:32;15.23;;;8.85;;
23015;SDS011;11674;52.428;13.584;2023-01-23T17:10:39;18.88;;;9.90;;
23015;SDS011;11674;52.428;13.584;2023-01-23T17:15:47;16.50;;;9.27;;
23015;SDS011;11674;52.428;13.584;2023-01-23T17:20:56;17.25;;;10.13;;
23015;SDS011;11674;52.428;13.584;2023-01-23T17:26:04;18.65;;;10.27;;
23015;SDS011;11674;52.428;13.584;2023-01-23T17:31:14;19.88;;;9.98;;
23015;SDS011;11674;52.428;13.584;2023-01-23T17:36:24;18.70;;;10.60;;
23015;SDS011;11674;52.428;13.584;2023-01-23T17:41:31;19.63;;;11.25;;
23015;SDS011;11674;52.428;13.584;2023-01-23T17:46:38;20.75;;;11.00;;
23015;SDS011;11674;52.428;13.584;2023-01-23T17:51:45;20.83;;;10.60;;
23015;SDS011;11674;52.428;13.584;2023-01-23T17:56:59;20.05;;;10.70;;
23015;SDS011;11674;52.428;13.584;2023-01-23T18:02:25;17.70;;;11.18;;
23015;SDS011;11674;52.428;13.584;2023-01-23T18:07:33;19.60;;;11.30;;
23015;SDS011;11674;52.428;13.584;2023-01-23T18:12:46;23.10;;;11.52;;
23015;SDS011;11674;52.428;13.584;2023-01-23T18:23:10;19.00;;;10.75;;
23015;SDS011;11674;52.428;13.584;2023-01-23T18:28:17;22.45;;;11.70;;
23015;SDS011;11674;52.428;13.584;2023-01-23T18:44:31;25.67;;;11.18;;
23015;SDS011;11674;52.428;13.584;2023-01-23T18:49:39;19.75;;;11.25;;
23015;SDS011;11674;52.428;13.584;2023-01-23T19:00:39;20.83;;;10.05;;
23015;SDS011;11674;52.428;13.584;2023-01-23T19:05:52;18.58;;;9.60;;
23015;SDS011;11674;52.428;13.584;2023-01-23T19:11:00;21.00;;;10.65;;
23015;SDS011;11674;52.428;13.584;2023-01-23T19:16:32;21.13;;;11.20;;
23015;SDS011;11674;52.428;13.584;2023-01-23T19:21:40;20.70;;;11.48;;
23015;SDS011;11674;52.428;13.584;2023-01-23T19:26:47;18.67;;;10.63;;
23015;SDS011;11674;52.428;13.584;2023-01-23T19:31:54;17.10;;;10.18;;
23015;SDS011;11674;52.428;13.584;2023-01-23T19:37:01;16.65;;;9.38;;
23015;SDS011;11674;52.428;13.584;2023-01-23T19:42:12;18.52;;;9.77;;
23015;SDS011;11674;52.428;13.584;2023-01-23T19:47:19;18.88;;;10.50;;
23015;SDS011;11674;52.428;13.584;2023-01-23T19:52:26;17.95;;;9.88;;
23015;SDS011;11674;52.428;13.584;2023-01-23T19:57:33;19.17;;;9.70;;
23015;SDS011;11674;52.428;13.584;2023-01-23T20:02:40;16.25;;;9.43;;
23015;SDS011;11674;52.428;13.584;2023-01-23T20:07:47;18.58;;;9.68;;
23015;SDS011;11674;52.428;13.584;2023-01-23T20:12:54;20.55;;;10.13;;
23015;SDS011;11674;52.428;13.584;2023-01-23T20:18:01;16.58;;;9.55;;
23015;SDS011;11674;52.428;13.584;2023-01-23T20:23:08;18.65;;;9.93;;
23015;SDS011;11674;52.428;13.584;2023-01-23T20:28:15;20.92;;;9.82;;
23015;SDS011;11674;52.428;13.584;2023-01-23T20:33:32;16.42;;;9.20;;
23015;SDS011;11674;52.428;13.584;2023-01-23T20:38:46;19.48;;;10.18;;
23015;SDS011;11674;52.428;13.584;2023-01-23T20:43:53;16.25;;;9.35;;
23015;SDS011;11674;52.428;13.584;2023-01-23T20:49:00;16.90;;;9.02;;
23015;SDS011;11674;52.428;13.584;2023-01-23T20:54:07;17.70;;;9.35;;
23015;SDS011;11674;52.428;13.584;2023-01-23T20:59:14;17.75;;;9.73;;
23015;SDS011;11674;52.428;13.584;2023-01-23T21:04:22;16.98;;;9.82;;
23015;SDS011;11674;52.428;13.584;2023-01-23T21:09:31;16.73;;;9.50;;
23015;SDS011;11674;52.428;13.584;2023-01-23T21:14:38;15.52;;;9.48;;
23015;SDS011;11674;52.428;13.584;2023-01-23T21:19:45;14.95;;;9.20;;
23015;SDS011;11674;52.428;13.584;2023-01-23T21:24:52;19.30;;;9.27;;
23015;SDS011;11674;52.428;13.584;2023-01-23T21:29:59;18.58;;;9.75;;
23015;SDS011;11674;52.428;13.584;2023-01-23T21:35:06;15.75;;;8.75;;
23015;SDS011;11674;52.428;13.584;2023-01-23T21:40:13;18.27;;;9.90;;
23015;SDS011;11674;52.428;13.584;2023-01-23T21:45:20;17.42;;;9.45;;
23015;SDS011;11674;52.428;13.584;2023-01-23T21:50:27;18.17;;;9.48;;
23015;SDS011;11674;52.428;13.584;2023-01-23T21:55:35;17.75;;;9.50;;
23015;SDS011;11674;52.428;13.584;2023-01-23T22:00:42;17.10;;;9.57;;
23015;SDS011;11674;52.428;13.584;2023-01-23T22:05:49;15.90;;;8.85;;
23015;SDS011;11674;52.428;13.584;2023-01-23T22:10:56;16.63;;;8.60;;
23015;SDS011;11674;52.428;13.584;2023-01-23T22:16:03;17.08;;;9.00;;
23015;SDS011;11674;52.428;13.584;2023-01-23T22:21:10;17.27;;;8.98;;
23015;SDS011;11674;52.428;13.584;2023-01-23T22:26:17;18.70;;;9.60;;
23015;SDS011;11674;52.428;13.584;2023-01-23T22:31:24;14.95;;;8.63;;
23015;SDS011;11674;52.428;13.584;2023-01-23T22:36:31;15.88;;;8.60;;
23015;SDS011;11674;52.428;13.584;2023-01-23T22:41:38;18.08;;;9.20;;
23015;SDS011;11674;52.428;13.584;2023-01-23T22:46:45;17.88;;;8.90;;
23015;SDS011;11674;52.428;13.584;2023-01-23T22:51:55;16.08;;;8.75;;
23015;SDS011;11674;52.428;13.584;2023-01-23T22:57:02;17.77;;;9.05;;
23015;SDS011;11674;52.428;13.584;2023-01-23T23:02:09;18.70;;;9.40;;
23015;SDS011;11674;52.428;13.584;2023-01-23T23:07:17;13.82;;;8.15;;
23015;SDS011;11674;52.428;13.584;2023-01-23T23:12:27;17.17;;;9.55;;
23015;SDS011;11674;52.428;13.584;2023-01-23T23:17:34;17.60;;;8.57;;
23015;SDS011;11674;52.428;13.584;2023-01-23T23:22:42;19.05;;;9.35;;
23015;SDS011;11674;52.428;13.584;2023-01-23T23:27:48;19.63;;;9.82;;
23015;SDS011;11674;52.428;13.584;2023-01-23T23:32:55;17.25;;;9.13;;
23015;SDS011;11674;52.428;13.584;2023-01-23T23:38:02;16.02;;;8.90;;
23015;SDS011;11674;52.428;13.584;2023-01-23T23:43:09;17.90;;;9.23;;
23015;SDS011;11674;52.428;13.584;2023-01-23T23:48:16;16.38;;;9.20;;
23015;SDS011;11674;52.428;13.584;2023-01-23T23:53:23;19.83;;;9.27;;
23015;SDS011;11674;52.428;13.584;2023-01-23T23:58:30;15.25;;;9.52;;
